Time;durP1;ratioP1;P1;durP2;ratioP2;P2;SDS_P1;SDS_P2;PMS_P1;PMS_P2;Temp;Humidity;BMP_temperature;BMP_pressure;BME280_temperature;BME280_humidity;BME280_pressure;Samples;Min_cycle;Max_cycle;Signal;HPM_P1;HPM_P2
2022/10/20 00:01:05;;;;;;;11.13;5.55;;;;;;;;;;5046722;28;20055;-64
2022/10/20 00:03:31;;;;;;;10.98;5.35;;;;;;;;;;5046942;28;20100;-64
2022/10/20 00:06:12;;;;;;;10.20;5.22;;;;;;;;;;5046675;28;20029;-64
2022/10/20 00:08:38;;;;;;;10.98;5.18;;;;;;;;;;5042944;28;20025;-64
2022/10/20 00:11:03;;;;;;;8.23;4.72;;;;;;;;;;5030252;28;20037;-65
2022/10/20 00:13:29;;;;;;;10.85;5.63;;;;;;;;;;5026665;28;20085;-64
2022/10/20 00:15:55;;;;;;;9.70;5.07;;;;;;;;;;5026844;28;20052;-65
2022/10/20 00:18:21;;;;;;;12.30;5.95;;;;;;;;;;5026318;28;20029;-64
2022/10/20 00:20:47;;;;;;;11.57;5.20;;;;;;;;;;5026120;28;20566;-64
2022/10/20 00:23:12;;;;;;;11.88;5.63;;;;;;;;;;5026322;28;20060;-64
2022/10/20 00:25:38;;;;;;;16.38;5.88;;;;;;;;;;5028228;28;20314;-64
2022/10/20 00:28:03;;;;;;;10.50;5.57;;;;;;;;;;5045669;28;20032;-64
2022/10/20 00:30:29;;;;;;;11.27;5.63;;;;;;;;;;5046503;28;20033;-64
2022/10/20 00:32:54;;;;;;;11.80;5.43;;;;;;;;;;5045413;28;20032;-65
2022/10/20 00:35:20;;;;;;;13.98;5.53;;;;;;;;;;5044594;28;20033;-64
2022/10/20 00:37:45;;;;;;;15.05;6.20;;;;;;;;;;5039978;28;20040;-65
2022/10/20 00:40:11;;;;;;;12.90;5.65;;;;;;;;;;5045378;28;20450;-64
2022/10/20 00:42:37;;;;;;;10.70;5.97;;;;;;;;;;5046841;28;20017;-64
2022/10/20 00:45:02;;;;;;;13.70;5.65;;;;;;;;;;5045183;28;20052;-64
2022/10/20 00:47:59;;;;;;;12.77;5.85;;;;;;;;;;5051762;28;20054;-64
2022/10/20 00:50:35;;;;;;;13.52;6.30;;;;;;;;;;5066018;28;20047;-64
2022/10/20 00:53:01;;;;;;;11.73;4.97;;;;;;;;;;5066294;28;20518;-64
2022/10/20 00:55:29;;;;;;;14.02;6.22;;;;;;;;;;5066250;28;20060;-64
2022/10/20 00:57:57;;;;;;;12.13;6.10;;;;;;;;;;5067058;28;20056;-64
2022/10/20 01:00:22;;;;;;;10.43;5.72;;;;;;;;;;5066349;28;20060;-64
2022/10/20 01:02:50;;;;;;;16.58;5.60;;;;;;;;;;5060801;28;20060;-64
2022/10/20 01:05:15;;;;;;;9.68;5.90;;;;;;;;;;5066181;28;20036;-64
2022/10/20 01:07:40;;;;;;;11.48;6.07;;;;;;;;;;5065980;28;20441;-64
2022/10/20 01:10:08;;;;;;;19.10;6.55;;;;;;;;;;5065988;28;20393;-64
2022/10/20 01:12:51;;;;;;;12.60;5.10;;;;;;;;;;5066520;28;20028;-64
2022/10/20 01:15:32;;;;;;;;;;;;;;;;;;5026710;28;20038;-65
2022/10/20 01:18:03;;;;;;;10.55;5.55;;;;;;;;;;5026425;28;20383;-65
2022/10/20 01:20:54;;;;;;;11.70;6.30;;;;;;;;;;5025607;28;20045;-64
2022/10/20 01:23:56;;;;;;;11.65;5.65;;;;;;;;;;5026131;28;20041;-65
2022/10/20 01:26:40;;;;;;;12.07;5.95;;;;;;;;;;5026264;28;20042;-65
2022/10/20 01:29:21;;;;;;;;;;;;;;;;;;5026548;28;20064;-64
2022/10/20 01:32:04;;;;;;;11.45;6.20;;;;;;;;;;5036941;28;20349;-64
2022/10/20 01:34:37;;;;;;;16.75;5.80;;;;;;;;;;5045851;28;20578;-64
2022/10/20 01:37:21;;;;;;;14.50;5.25;;;;;;;;;;5045637;28;20033;-64
2022/10/20 01:39:53;;;;;;;12.88;5.75;;;;;;;;;;5045777;28;20052;-64
2022/10/20 01:42:23;;;;;;;9.23;5.30;;;;;;;;;;5044515;28;20652;-64
2022/10/20 01:44:51;;;;;;;12.82;6.05;;;;;;;;;;5045185;28;20052;-64
2022/10/20 01:47:18;;;;;;;11.18;5.78;;;;;;;;;;5045211;28;20033;-64
2022/10/20 01:49:46;;;;;;;11.38;5.80;;;;;;;;;;5045844;28;20045;-64
2022/10/20 01:52:12;;;;;;;13.68;5.75;;;;;;;;;;5044190;28;20147;-64
2022/10/20 01:54:37;;;;;;;10.68;5.97;;;;;;;;;;5045227;28;20108;-64
2022/10/20 01:57:41;;;;;;;12.13;5.40;;;;;;;;;;5045500;28;20032;-65
2022/10/20 02:00:12;;;;;;;9.38;5.10;;;;;;;;;;5031345;28;20043;-64
2022/10/20 02:03:09;;;;;;;13.10;5.72;;;;;;;;;;5026269;28;20041;-64
2022/10/20 02:05:53;;;;;;;11.48;5.55;;;;;;;;;;5027215;28;20125;-64
2022/10/20 02:08:40;;;;;;;9.38;5.18;;;;;;;;;;5041784;28;20372;-64
2022/10/20 02:11:11;;;;;;;14.20;5.35;;;;;;;;;;5059053;28;20044;-64
2022/10/20 02:13:37;;;;;;;11.88;5.82;;;;;;;;;;5065592;28;20037;-64
2022/10/20 02:16:09;;;;;;;11.18;5.60;;;;;;;;;;5065973;28;20032;-64
2022/10/20 02:18:40;;;;;;;13.13;5.82;;;;;;;;;;5058419;28;20021;-64
2022/10/20 02:21:07;;;;;;;10.95;5.97;;;;;;;;;;5044021;28;20510;-64
2022/10/20 02:23:36;;;;;;;10.57;5.85;;;;;;;;;;5045408;28;20510;-64
2022/10/20 02:26:04;;;;;;;9.65;5.88;;;;;;;;;;5045671;28;20122;-64
2022/10/20 02:28:32;;;;;;;10.85;5.90;;;;;;;;;;5044605;28;20617;-64
2022/10/20 02:30:58;;;;;;;11.00;5.57;;;;;;;;;;5045547;28;20111;-64
2022/10/20 02:33:24;;;;;;;9.43;5.55;;;;;;;;;;5044879;28;20170;-64
2022/10/20 02:35:56;;;;;;;12.70;5.95;;;;;;;;;;5045727;28;20470;-65
2022/10/20 02:38:21;;;;;;;9.77;5.38;;;;;;;;;;5045298;28;20553;-64
2022/10/20 02:40:46;;;;;;;12.15;5.70;;;;;;;;;;5045193;28;20033;-64
2022/10/20 02:43:12;;;;;;;14.25;5.97;;;;;;;;;;5045581;28;20061;-64
2022/10/20 02:45:37;;;;;;;10.30;5.45;;;;;;;;;;5044968;28;20032;-64
2022/10/20 02:48:03;;;;;;;9.02;5.15;;;;;;;;;;5046993;28;20549;-65
2022/10/20 02:50:29;;;;;;;10.98;6.05;;;;;;;;;;5045289;28;20119;-64
2022/10/20 02:52:54;;;;;;;10.52;5.88;;;;;;;;;;5045076;28;20028;-65
2022/10/20 02:55:19;;;;;;;12.98;6.10;;;;;;;;;;5045119;28;20409;-64
2022/10/20 02:57:45;;;;;;;9.95;5.55;;;;;;;;;;5040405;28;20032;-64
2022/10/20 03:00:10;;;;;;;10.95;5.47;;;;;;;;;;5037722;28;20469;-65
2022/10/20 03:02:36;;;;;;;13.82;6.07;;;;;;;;;;5044989;28;20043;-64
2022/10/20 03:05:01;;;;;;;8.30;4.97;;;;;;;;;;5043479;28;20041;-65
2022/10/20 03:07:26;;;;;;;13.25;5.25;;;;;;;;;;5043604;28;20665;-64
2022/10/20 03:09:52;;;;;;;14.60;5.50;;;;;;;;;;5044878;28;20409;-65
2022/10/20 03:12:17;;;;;;;11.07;5.85;;;;;;;;;;5044821;28;20540;-65
2022/10/20 03:14:42;;;;;;;10.90;6.30;;;;;;;;;;5042186;28;20573;-64
2022/10/20 03:17:08;;;;;;;12.63;5.68;;;;;;;;;;5024743;28;20037;-65
2022/10/20 03:19:34;;;;;;;10.07;5.70;;;;;;;;;;5024889;28;20037;-65
2022/10/20 03:21:59;;;;;;;10.82;5.13;;;;;;;;;;5024641;28;20443;-63
2022/10/20 03:24:24;;;;;;;9.95;5.13;;;;;;;;;;5025437;28;20025;-65
2022/10/20 03:26:50;;;;;;;9.20;4.90;;;;;;;;;;5024827;28;20195;-65
2022/10/20 03:29:15;;;;;;;14.63;5.90;;;;;;;;;;5037021;28;20100;-65
2022/10/20 03:31:40;;;;;;;11.55;5.63;;;;;;;;;;5039221;28;20044;-64
2022/10/20 03:34:06;;;;;;;13.55;6.13;;;;;;;;;;5044549;28;20064;-64
2022/10/20 03:36:31;;;;;;;14.18;5.88;;;;;;;;;;5044861;28;20056;-64
2022/10/20 03:38:56;;;;;;;11.38;5.15;;;;;;;;;;5044320;28;20103;-64
2022/10/20 03:41:22;;;;;;;11.30;4.95;;;;;;;;;;5039942;28;20110;-64
2022/10/20 03:43:47;;;;;;;13.43;6.38;;;;;;;;;;5044171;28;20044;-65
2022/10/20 03:46:12;;;;;;;11.90;6.07;;;;;;;;;;5044560;28;20036;-64
2022/10/20 03:48:38;;;;;;;16.38;6.05;;;;;;;;;;5044794;28;20029;-65
2022/10/20 03:51:05;;;;;;;10.90;5.47;;;;;;;;;;5044377;28;20075;-65
2022/10/20 03:53:31;;;;;;;13.48;5.80;;;;;;;;;;5043535;28;20098;-64
2022/10/20 03:55:56;;;;;;;11.25;5.88;;;;;;;;;;5042563;28;20033;-65
2022/10/20 03:58:22;;;;;;;10.88;5.32;;;;;;;;;;5044637;28;20036;-64
2022/10/20 04:00:48;;;;;;;11.93;5.95;;;;;;;;;;5044878;28;20028;-64
2022/10/20 04:03:13;;;;;;;9.60;5.63;;;;;;;;;;5044229;28;20068;-65
2022/10/20 04:05:39;;;;;;;9.07;5.00;;;;;;;;;;5044322;28;20048;-64
2022/10/20 04:08:05;;;;;;;10.77;5.68;;;;;;;;;;5044251;28;20033;-64
2022/10/20 04:10:30;;;;;;;15.27;5.47;;;;;;;;;;5043822;28;20037;-64
2022/10/20 04:13:02;;;;;;;14.57;5.50;;;;;;;;;;5044830;28;20029;-65
2022/10/20 04:15:27;;;;;;;11.95;5.78;;;;;;;;;;5044326;28;20045;-64
2022/10/20 04:17:53;;;;;;;12.43;6.07;;;;;;;;;;5034544;28;20030;-64
2022/10/20 04:20:18;;;;;;;12.15;5.53;;;;;;;;;;5023758;28;20124;-64
2022/10/20 04:22:43;;;;;;;10.43;5.47;;;;;;;;;;5024380;28;20129;-64
2022/10/20 04:25:10;;;;;;;10.88;5.53;;;;;;;;;;5037567;28;20028;-64
2022/10/20 04:27:37;;;;;;;11.70;5.93;;;;;;;;;;5026720;28;20099;-65
2022/10/20 04:30:02;;;;;;;10.25;5.72;;;;;;;;;;5024096;28;20046;-65
2022/10/20 04:32:28;;;;;;;14.07;5.95;;;;;;;;;;5023559;28;20091;-64
2022/10/20 04:34:53;;;;;;;10.82;5.53;;;;;;;;;;5024295;28;20033;-64
2022/10/20 04:37:18;;;;;;;10.48;5.85;;;;;;;;;;5023955;28;20068;-64
2022/10/20 04:39:43;;;;;;;11.02;5.60;;;;;;;;;;5034658;28;20074;-65
2022/10/20 04:42:09;;;;;;;11.88;6.25;;;;;;;;;;5043632;28;20044;-64
2022/10/20 04:44:34;;;;;;;13.63;5.65;;;;;;;;;;5046028;28;20049;-64
2022/10/20 04:46:59;;;;;;;12.02;5.28;;;;;;;;;;5047647;28;20048;-64
2022/10/20 04:49:25;;;;;;;10.75;5.30;;;;;;;;;;5047432;28;20144;-64
2022/10/20 04:51:50;;;;;;;11.25;5.68;;;;;;;;;;5046825;28;20029;-64
2022/10/20 04:54:15;;;;;;;13.85;5.95;;;;;;;;;;5047346;28;20045;-65
2022/10/20 04:56:41;;;;;;;9.43;5.35;;;;;;;;;;5045931;28;20055;-64
2022/10/20 04:59:06;;;;;;;13.32;6.38;;;;;;;;;;5046407;28;20502;-65
2022/10/20 05:01:31;;;;;;;13.88;5.68;;;;;;;;;;5046071;28;20040;-64
2022/10/20 05:03:57;;;;;;;13.50;5.65;;;;;;;;;;5038478;28;20083;-64
2022/10/20 05:06:28;;;;;;;11.80;5.85;;;;;;;;;;5045574;28;20036;-64
2022/10/20 05:08:56;;;;;;;12.98;5.82;;;;;;;;;;5047285;28;20071;-64
2022/10/20 05:11:24;;;;;;;15.85;6.15;;;;;;;;;;5046465;28;20116;-64
2022/10/20 05:13:50;;;;;;;11.15;6.18;;;;;;;;;;5047045;28;20044;-64
2022/10/20 05:16:16;;;;;;;12.60;6.07;;;;;;;;;;5047192;28;20025;-64
2022/10/20 05:18:43;;;;;;;13.18;6.38;;;;;;;;;;5047641;28;20422;-64
2022/10/20 05:21:11;;;;;;;13.93;6.03;;;;;;;;;;5042824;28;20037;-64
2022/10/20 05:23:38;;;;;;;14.60;6.78;;;;;;;;;;5045618;28;20028;-64
2022/10/20 05:26:10;;;;;;;14.82;5.45;;;;;;;;;;5047077;28;20478;-64
2022/10/20 05:28:35;;;;;;;11.07;6.13;;;;;;;;;;5044713;28;20060;-64
2022/10/20 05:31:05;;;;;;;14.18;5.85;;;;;;;;;;5042712;28;20052;-64
2022/10/20 05:33:31;;;;;;;13.35;6.28;;;;;;;;;;5046834;28;20056;-65
2022/10/20 05:35:56;;;;;;;12.43;6.57;;;;;;;;;;5045296;28;20057;-64
2022/10/20 05:38:22;;;;;;;14.13;6.20;;;;;;;;;;5039247;28;20033;-64
2022/10/20 05:40:47;;;;;;;13.07;6.40;;;;;;;;;;5034851;28;20454;-65
2022/10/20 05:43:13;;;;;;;12.80;6.57;;;;;;;;;;5045453;28;20040;-65
2022/10/20 05:45:38;;;;;;;12.82;6.07;;;;;;;;;;5046621;28;20024;-65
2022/10/20 05:48:04;;;;;;;12.45;6.30;;;;;;;;;;5046332;28;20039;-65
2022/10/20 05:50:29;;;;;;;19.10;6.78;;;;;;;;;;5045699;28;20045;-65
2022/10/20 05:52:54;;;;;;;16.85;6.63;;;;;;;;;;5044971;28;20033;-65
2022/10/20 05:55:20;;;;;;;12.55;6.80;;;;;;;;;;5052886;28;20025;-65
2022/10/20 05:57:48;;;;;;;21.15;7.18;;;;;;;;;;5041420;28;20102;-65
2022/10/20 06:00:15;;;;;;;19.25;8.15;;;;;;;;;;5045680;28;20025;-65
2022/10/20 06:02:40;;;;;;;20.25;6.72;;;;;;;;;;5046068;28;20425;-65
2022/10/20 06:05:06;;;;;;;17.15;7.55;;;;;;;;;;5043479;28;20029;-65
2022/10/20 06:07:31;;;;;;;18.42;7.05;;;;;;;;;;5042842;28;20041;-65
2022/10/20 06:09:57;;;;;;;20.70;8.00;;;;;;;;;;5045233;28;20043;-65
2022/10/20 06:12:22;;;;;;;13.73;7.40;;;;;;;;;;5042551;28;20049;-65
2022/10/20 06:14:47;;;;;;;15.02;7.30;;;;;;;;;;5044000;28;20044;-65
2022/10/20 06:17:12;;;;;;;17.58;7.30;;;;;;;;;;5060559;28;20113;-65
2022/10/20 06:19:38;;;;;;;18.75;7.45;;;;;;;;;;5065911;28;20036;-65
2022/10/20 06:22:03;;;;;;;21.58;7.97;;;;;;;;;;5050950;28;20028;-65
2022/10/20 06:24:28;;;;;;;13.95;7.13;;;;;;;;;;5045864;28;20086;-64
2022/10/20 06:26:54;;;;;;;14.38;6.47;;;;;;;;;;5045481;28;20384;-65
2022/10/20 06:29:19;;;;;;;13.82;6.75;;;;;;;;;;5044341;28;20123;-64
2022/10/20 06:31:47;;;;;;;15.50;6.88;;;;;;;;;;5043255;28;20040;-64
2022/10/20 06:34:15;;;;;;;16.48;7.78;;;;;;;;;;5045013;28;20060;-64
2022/10/20 06:36:41;;;;;;;16.05;7.80;;;;;;;;;;5045076;28;20104;-64
2022/10/20 06:39:09;;;;;;;15.85;6.60;;;;;;;;;;5047208;28;20119;-64
2022/10/20 06:41:35;;;;;;;13.88;7.35;;;;;;;;;;5030346;28;20116;-63
2022/10/20 06:44:00;;;;;;;17.75;7.95;;;;;;;;;;5033987;28;20053;-63
2022/10/20 06:46:28;;;;;;;14.25;7.32;;;;;;;;;;5059940;28;20040;-64
2022/10/20 06:48:54;;;;;;;21.45;7.45;;;;;;;;;;5063262;28;20017;-64
2022/10/20 06:51:22;;;;;;;20.17;7.65;;;;;;;;;;5052625;28;20037;-63
2022/10/20 06:53:50;;;;;;;21.08;7.53;;;;;;;;;;5010024;28;20115;-63
2022/10/20 06:56:18;;;;;;;18.05;7.63;;;;;;;;;;5037198;28;20037;-63
2022/10/20 06:58:46;;;;;;;14.82;6.80;;;;;;;;;;5030295;28;20533;-63
2022/10/20 07:01:23;;;;;;;14.18;7.07;;;;;;;;;;5064124;28;20024;-63
2022/10/20 07:03:49;;;;;;;18.27;7.00;;;;;;;;;;5062535;28;20497;-64
2022/10/20 07:06:18;;;;;;;13.93;6.53;;;;;;;;;;5031807;28;20176;-64
2022/10/20 07:08:44;;;;;;;13.60;6.88;;;;;;;;;;5025291;28;20061;-63
2022/10/20 07:11:15;;;;;;;17.75;6.75;;;;;;;;;;5026233;28;20593;-64
2022/10/20 07:13:41;;;;;;;13.40;6.82;;;;;;;;;;5035971;28;20797;-64
2022/10/20 07:16:07;;;;;;;15.35;6.72;;;;;;;;;;5039521;28;20068;-64
2022/10/20 07:18:34;;;;;;;14.68;7.32;;;;;;;;;;5046047;28;20066;-64
2022/10/20 07:21:03;;;;;;;18.60;7.15;;;;;;;;;;5042735;28;20033;-65
2022/10/20 07:23:30;;;;;;;16.02;7.38;;;;;;;;;;5043781;28;20720;-65
2022/10/20 07:26:23;;;;;;;17.63;6.70;;;;;;;;;;5044346;28;20047;-66
2022/10/20 07:28:51;;;;;;;13.80;6.65;;;;;;;;;;5041407;28;20068;-66
2022/10/20 07:31:20;;;;;;;13.98;7.35;;;;;;;;;;5031310;28;20032;-66
2022/10/20 07:33:46;;;;;;;16.30;7.40;;;;;;;;;;5036654;28;20021;-65
2022/10/20 07:36:31;;;;;;;16.33;7.57;;;;;;;;;;5022563;28;20059;-66
2022/10/20 07:38:58;;;;;;;17.38;7.88;;;;;;;;;;5033109;28;20510;-66
2022/10/20 07:41:25;;;;;;;14.23;7.43;;;;;;;;;;5043397;28;20036;-66
2022/10/20 07:43:51;;;;;;;12.70;5.57;;;;;;;;;;5045648;28;20084;-66
2022/10/20 07:46:16;;;;;;;14.75;6.72;;;;;;;;;;5045811;28;20041;-66
2022/10/20 07:48:42;;;;;;;16.42;7.30;;;;;;;;;;5044542;28;20579;-66
2022/10/20 07:51:25;;;;;;;19.17;7.68;;;;;;;;;;5044207;28;20033;-66
2022/10/20 07:53:53;;;;;;;20.05;7.15;;;;;;;;;;5044930;28;20167;-68
2022/10/20 07:56:19;;;;;;;16.98;7.53;;;;;;;;;;5044397;28;20530;-67
2022/10/20 07:58:45;;;;;;;17.90;7.50;;;;;;;;;;5045054;28;20449;-67
2022/10/20 08:01:10;;;;;;;17.23;7.32;;;;;;;;;;5043085;28;20646;-67
2022/10/20 08:03:36;;;;;;;24.42;8.98;;;;;;;;;;5046014;28;20025;-67
2022/10/20 08:06:02;;;;;;;17.50;7.63;;;;;;;;;;5045688;28;20037;-66
2022/10/20 08:08:27;;;;;;;16.92;8.38;;;;;;;;;;5045216;28;20056;-66
2022/10/20 08:10:53;;;;;;;17.88;8.10;;;;;;;;;;5043832;28;20127;-66
2022/10/20 08:13:18;;;;;;;15.88;7.40;;;;;;;;;;5044149;28;20104;-66
2022/10/20 08:15:44;;;;;;;22.30;8.40;;;;;;;;;;5044422;28;20017;-66
2022/10/20 08:18:09;;;;;;;15.30;7.72;;;;;;;;;;5045856;28;20033;-67
2022/10/20 08:20:35;;;;;;;13.63;7.55;;;;;;;;;;5049015;28;20059;-66
2022/10/20 08:23:00;;;;;;;19.90;7.90;;;;;;;;;;5048727;28;20037;-67
2022/10/20 08:25:25;;;;;;;17.20;7.47;;;;;;;;;;5048933;28;20206;-68
2022/10/20 08:27:51;;;;;;;14.68;7.97;;;;;;;;;;5049178;28;20025;-69
2022/10/20 08:30:16;;;;;;;16.17;7.97;;;;;;;;;;5039974;28;20431;-66
2022/10/20 08:32:42;;;;;;;20.25;7.85;;;;;;;;;;5028744;28;20080;-67
2022/10/20 08:35:08;;;;;;;22.77;8.07;;;;;;;;;;5028520;28;20143;-71
2022/10/20 08:37:35;;;;;;;20.35;8.15;;;;;;;;;;5028181;28;20049;-71
2022/10/20 08:40:01;;;;;;;15.30;7.13;;;;;;;;;;5043601;28;20119;-69
2022/10/20 08:42:26;;;;;;;18.67;7.03;;;;;;;;;;5029590;28;20021;-70
2022/10/20 08:44:57;;;;;;;16.00;7.43;;;;;;;;;;5034438;28;20080;-69
2022/10/20 08:47:26;;;;;;;13.90;7.07;;;;;;;;;;5041359;28;20164;-66
2022/10/20 08:49:52;;;;;;;16.42;7.50;;;;;;;;;;5045067;28;20072;-69
2022/10/20 08:52:19;;;;;;;18.05;6.97;;;;;;;;;;5048066;28;20032;-70
2022/10/20 08:54:47;;;;;;;18.00;7.90;;;;;;;;;;5046616;28;20029;-72
2022/10/20 08:57:21;;;;;;;14.45;6.45;;;;;;;;;;5046543;28;20866;-71
2022/10/20 08:59:49;;;;;;;18.30;7.03;;;;;;;;;;5046174;28;20410;-66
2022/10/20 09:02:16;;;;;;;16.70;6.57;;;;;;;;;;5046634;28;20431;-69
2022/10/20 09:04:51;;;;;;;17.17;7.03;;;;;;;;;;5044424;28;20029;-69
2022/10/20 09:07:36;;;;;;;15.00;6.88;;;;;;;;;;5048174;28;20028;-66
2022/10/20 09:10:20;;;;;;;13.40;6.78;;;;;;;;;;5046787;28;20060;-73
2022/10/20 09:12:47;;;;;;;11.18;6.75;;;;;;;;;;5043607;28;20542;-63
2022/10/20 09:15:15;;;;;;;13.75;6.40;;;;;;;;;;5047904;28;20406;-65
2022/10/20 09:17:45;;;;;;;11.32;7.00;;;;;;;;;;5047437;28;20033;-67
2022/10/20 09:20:28;;;;;;;13.20;6.95;;;;;;;;;;5046604;28;20037;-68
2022/10/20 09:22:54;;;;;;;14.23;6.00;;;;;;;;;;5046967;28;20522;-69
2022/10/20 09:25:24;;;;;;;12.23;6.50;;;;;;;;;;5046240;28;20044;-67
2022/10/20 09:27:50;;;;;;;20.83;7.30;;;;;;;;;;5046399;28;20052;-69
2022/10/20 09:30:27;;;;;;;17.38;7.05;;;;;;;;;;5047435;28;20749;-66
2022/10/20 09:32:53;;;;;;;12.07;6.50;;;;;;;;;;5046767;28;20659;-67
2022/10/20 09:35:23;;;;;;;15.95;6.97;;;;;;;;;;5047375;28;20036;-67
2022/10/20 09:38:02;;;;;;;20.67;7.85;;;;;;;;;;5030881;28;20030;-67
2022/10/20 09:40:28;;;;;;;11.05;5.80;;;;;;;;;;5044104;28;20025;-66
2022/10/20 09:42:58;;;;;;;14.90;7.03;;;;;;;;;;5047681;28;20021;-68
2022/10/20 09:45:27;;;;;;;17.08;6.90;;;;;;;;;;5047141;28;20033;-70
2022/10/20 09:47:57;;;;;;;12.32;6.65;;;;;;;;;;5045771;28;20399;-68
2022/10/20 09:50:28;;;;;;;16.15;6.97;;;;;;;;;;5046882;28;20469;-66
2022/10/20 09:52:55;;;;;;;9.70;5.30;;;;;;;;;;5046918;28;20037;-69
2022/10/20 09:55:36;;;;;;;15.98;6.80;;;;;;;;;;5046823;28;20070;-66
2022/10/20 09:58:03;;;;;;;21.75;6.75;;;;;;;;;;5047208;28;20025;-66
2022/10/20 10:00:32;;;;;;;13.07;6.18;;;;;;;;;;5047601;28;20017;-65
2022/10/20 10:03:18;;;;;;;12.25;6.32;;;;;;;;;;5046199;28;20087;-66
2022/10/20 10:05:44;;;;;;;12.10;6.75;;;;;;;;;;5047102;28;20388;-66
2022/10/20 10:08:14;;;;;;;14.52;7.35;;;;;;;;;;5046980;28;20040;-67
2022/10/20 10:10:40;;;;;;;17.55;7.57;;;;;;;;;;5047761;28;20052;-65
2022/10/20 10:13:20;;;;;;;12.32;6.60;;;;;;;;;;5046953;28;20031;-66
2022/10/20 10:15:46;;;;;;;12.65;6.47;;;;;;;;;;5047257;28;20043;-67
2022/10/20 10:18:21;;;;;;;11.57;5.90;;;;;;;;;;5047438;28;20033;-66
2022/10/20 10:20:46;;;;;;;12.70;6.72;;;;;;;;;;5043493;28;20052;-66
2022/10/20 10:23:19;;;;;;;13.05;6.45;;;;;;;;;;5047211;28;20070;-71
2022/10/20 10:25:45;;;;;;;12.13;6.38;;;;;;;;;;5047168;28;20055;-66
2022/10/20 10:28:28;;;;;;;12.05;6.40;;;;;;;;;;5048676;28;20482;-63
2022/10/20 10:31:23;;;;;;;12.07;5.80;;;;;;;;;;5026780;28;20110;-62
2022/10/20 10:33:57;;;;;;;9.85;5.68;;;;;;;;;;5028726;28;20048;-62
2022/10/20 10:36:33;;;;;;;14.82;6.80;;;;;;;;;;5039485;28;20101;-63
2022/10/20 10:39:00;;;;;;;10.18;5.03;;;;;;;;;;5038283;28;20506;-61
2022/10/20 10:41:40;;;;;;;23.27;6.70;;;;;;;;;;5048017;28;20029;-64
2022/10/20 10:44:24;;;;;;;14.88;5.55;;;;;;;;;;5045437;28;20083;-63
2022/10/20 10:47:23;;;;;;;13.77;5.45;;;;;;;;;;5041830;28;20534;-69
2022/10/20 10:50:01;;;;;;;11.20;5.00;;;;;;;;;;5036625;28;20120;-70
2022/10/20 10:52:32;;;;;;;12.10;5.03;;;;;;;;;;5065094;28;20056;-69
2022/10/20 10:54:58;;;;;;;11.55;5.18;;;;;;;;;;5066101;28;20028;-69
2022/10/20 10:57:31;;;;;;;11.55;5.22;;;;;;;;;;5065010;28;20044;-69
2022/10/20 11:00:00;;;;;;;11.02;5.32;;;;;;;;;;5065592;28;20067;-71
2022/10/20 11:02:35;;;;;;;9.63;4.53;;;;;;;;;;5064480;28;20525;-70
2022/10/20 11:05:23;;;;;;;10.85;4.93;;;;;;;;;;5061776;28;20139;-68
2022/10/20 11:07:57;;;;;;;12.18;5.18;;;;;;;;;;5041529;28;20037;-69
2022/10/20 11:10:33;;;;;;;10.80;4.60;;;;;;;;;;5042937;28;20041;-68
2022/10/20 11:13:02;;;;;;;6.50;3.90;;;;;;;;;;5044803;28;20495;-69
2022/10/20 11:15:46;;;;;;;8.68;4.55;;;;;;;;;;5044436;28;20044;-69
2022/10/20 11:18:30;;;;;;;10.90;4.82;;;;;;;;;;5043896;28;20048;-69
2022/10/20 11:21:22;;;;;;;10.50;4.10;;;;;;;;;;5041846;28;20086;-69
2022/10/20 11:24:06;;;;;;;10.45;4.07;;;;;;;;;;5041185;28;20051;-69
2022/10/20 11:26:35;;;;;;;8.70;4.18;;;;;;;;;;5025198;28;20047;-69
2022/10/20 11:29:04;;;;;;;7.03;4.00;;;;;;;;;;5025261;28;20713;-69
2022/10/20 11:31:38;;;;;;;6.45;3.65;;;;;;;;;;5029117;28;20120;-69
2022/10/20 11:34:10;;;;;;;7.70;4.00;;;;;;;;;;5044542;28;20100;-69
2022/10/20 11:36:41;;;;;;;8.15;3.45;;;;;;;;;;5038834;28;20029;-68
2022/10/20 11:39:16;;;;;;;10.88;4.00;;;;;;;;;;5035881;28;20053;-68
2022/10/20 11:41:48;;;;;;;10.13;3.92;;;;;;;;;;5045331;28;20033;-69
2022/10/20 11:44:20;;;;;;;7.30;3.72;;;;;;;;;;5044945;28;20540;-69
2022/10/20 11:46:53;;;;;;;4.80;2.83;;;;;;;;;;5045681;28;20040;-69
2022/10/20 11:49:19;;;;;;;5.43;3.25;;;;;;;;;;5041920;28;20124;-68
2022/10/20 11:52:16;;;;;;;5.18;3.28;;;;;;;;;;5047779;28;20035;-69
2022/10/20 11:54:47;;;;;;;8.30;3.95;;;;;;;;;;5048129;28;20084;-69
2022/10/20 11:57:18;;;;;;;8.60;3.58;;;;;;;;;;5049008;28;20048;-69
2022/10/20 12:00:03;;;;;;;5.78;3.30;;;;;;;;;;5048236;28;20055;-68
2022/10/20 12:02:50;;;;;;;5.90;3.38;;;;;;;;;;5049024;28;20051;-68
2022/10/20 12:05:37;;;;;;;7.80;3.35;;;;;;;;;;5036934;28;20040;-68
2022/10/20 12:08:33;;;;;;;7.00;3.38;;;;;;;;;;5050946;28;20066;-69
2022/10/20 12:11:24;;;;;;;7.65;3.00;;;;;;;;;;5050401;28;20033;-68
2022/10/20 12:14:08;;;;;;;5.63;2.75;;;;;;;;;;5029901;28;20048;-68
2022/10/20 12:16:57;;;;;;;4.65;3.40;;;;;;;;;;5050503;28;20039;-68
2022/10/20 12:19:25;;;;;;;4.68;3.15;;;;;;;;;;5050362;28;20102;-68
2022/10/20 12:21:54;;;;;;;5.15;2.97;;;;;;;;;;5050649;28;20051;-68
2022/10/20 12:24:31;;;;;;;6.25;3.20;;;;;;;;;;5049358;28;20040;-68
2022/10/20 12:27:07;;;;;;;5.90;3.00;;;;;;;;;;5052118;28;20064;-68
2022/10/20 12:29:32;;;;;;;6.18;2.80;;;;;;;;;;5051597;28;20581;-68
2022/10/20 12:32:35;;;;;;;5.30;2.63;;;;;;;;;;5051607;28;20112;-68
2022/10/20 12:35:09;;;;;;;6.00;2.60;;;;;;;;;;5051541;28;20051;-68
2022/10/20 12:37:36;;;;;;;7.72;3.30;;;;;;;;;;5049471;28;20074;-68
2022/10/20 12:40:24;;;;;;;7.10;2.65;;;;;;;;;;5050783;28;20025;-68
2022/10/20 12:42:54;;;;;;;6.47;2.70;;;;;;;;;;5052414;28;20050;-69
2022/10/20 12:45:19;;;;;;;3.95;2.60;;;;;;;;;;5049667;28;21016;-68
2022/10/20 12:48:18;;;;;;;5.00;2.33;;;;;;;;;;5050758;28;20182;-68
2022/10/20 12:50:45;;;;;;;5.28;2.47;;;;;;;;;;5050238;28;20128;-68
2022/10/20 12:53:15;;;;;;;4.30;2.63;;;;;;;;;;5051087;28;20045;-68
2022/10/20 12:55:43;;;;;;;5.80;2.50;;;;;;;;;;5051452;28;20069;-68
2022/10/20 12:58:17;;;;;;;4.55;2.53;;;;;;;;;;5046999;28;20039;-68
2022/10/20 13:00:46;;;;;;;4.78;2.60;;;;;;;;;;5047517;28;20119;-68
2022/10/20 13:03:45;;;;;;;5.35;2.33;;;;;;;;;;5048486;28;20053;-69
2022/10/20 13:06:23;;;;;;;7.10;2.50;;;;;;;;;;5058171;28;20072;-68
2022/10/20 13:09:03;;;;;;;4.57;2.30;;;;;;;;;;5040445;28;20044;-68
2022/10/20 13:11:36;;;;;;;4.45;2.28;;;;;;;;;;5042178;28;20139;-68
2022/10/20 13:14:34;;;;;;;6.23;2.80;;;;;;;;;;5047368;28;20080;-68
2022/10/20 13:17:19;;;;;;;4.72;2.42;;;;;;;;;;5047416;28;20029;-68
2022/10/20 13:19:51;;;;;;;4.40;2.17;;;;;;;;;;5048516;28;20033;-68
2022/10/20 13:22:30;;;;;;;4.18;2.50;;;;;;;;;;5047869;28;20108;-68
2022/10/20 13:24:57;;;;;;;6.93;2.22;;;;;;;;;;5045801;28;20103;-68
2022/10/20 13:27:23;;;;;;;3.30;2.30;;;;;;;;;;5048295;28;20436;-68
2022/10/20 13:29:49;;;;;;;3.67;2.25;;;;;;;;;;5047401;28;20033;-68
2022/10/20 13:32:21;;;;;;;9.65;2.38;;;;;;;;;;5045469;28;20127;-68
2022/10/20 13:34:59;;;;;;;2.95;2.00;;;;;;;;;;5045472;28;20135;-68
2022/10/20 13:37:40;;;;;;;3.65;1.90;;;;;;;;;;5047532;28;20040;-68
2022/10/20 13:40:19;;;;;;;3.53;2.22;;;;;;;;;;5033503;28;20435;-68
2022/10/20 13:42:51;;;;;;;3.42;1.90;;;;;;;;;;5028551;28;20026;-68
2022/10/20 13:45:48;;;;;;;5.32;2.47;;;;;;;;;;5025828;28;20045;-69
2022/10/20 13:48:25;;;;;;;4.20;2.42;;;;;;;;;;5023873;28;20131;-68
2022/10/20 13:50:58;;;;;;;4.60;2.38;;;;;;;;;;5026350;28;20112;-68
2022/10/20 13:53:34;;;;;;;7.32;2.30;;;;;;;;;;5025262;28;20044;-68
2022/10/20 13:56:06;;;;;;;4.47;2.00;;;;;;;;;;5025607;28;20054;-68
2022/10/20 13:58:32;;;;;;;5.50;2.60;;;;;;;;;;5026822;28;20045;-68
2022/10/20 14:01:12;;;;;;;4.72;2.05;;;;;;;;;;5026953;28;20446;-68
2022/10/20 14:03:45;;;;;;;5.55;2.22;;;;;;;;;;5025243;28;20075;-68
2022/10/20 14:06:43;;;;;;;;;;;;;;;;;;5026797;28;20041;-68
2022/10/20 14:09:19;;;;;;;4.70;2.30;;;;;;;;;;5031054;28;19931;-68
2022/10/20 14:12:05;;;;;;;2.55;1.70;;;;;;;;;;5045222;28;20581;-67
2022/10/20 14:14:31;;;;;;;4.32;2.10;;;;;;;;;;5043989;28;20131;-68
2022/10/20 14:17:05;;;;;;;5.18;2.63;;;;;;;;;;5047058;28;20040;-68
2022/10/20 14:19:32;;;;;;;5.72;2.10;;;;;;;;;;5038889;28;20052;-68
2022/10/20 14:22:21;;;;;;;4.07;2.10;;;;;;;;;;5042637;28;20107;-69
2022/10/20 14:24:51;;;;;;;3.50;2.13;;;;;;;;;;5045893;28;20098;-68
2022/10/20 14:27:20;;;;;;;5.05;1.90;;;;;;;;;;5043769;28;20047;-68
2022/10/20 14:29:46;;;;;;;2.95;1.73;;;;;;;;;;5059877;28;20051;-68
2022/10/20 14:32:21;;;;;;;7.18;1.90;;;;;;;;;;5064373;28;20144;-68
2022/10/20 14:34:57;;;;;;;4.68;2.15;;;;;;;;;;5066718;28;20140;-68
2022/10/20 14:37:29;;;;;;;3.65;1.90;;;;;;;;;;5064880;28;20032;-68
2022/10/20 14:39:55;;;;;;;4.28;1.73;;;;;;;;;;5055410;28;20107;-68
2022/10/20 14:42:27;;;;;;;2.42;1.80;;;;;;;;;;5047134;28;20558;-68
2022/10/20 14:44:55;;;;;;;6.63;1.93;;;;;;;;;;5044589;28;20593;-68
2022/10/20 14:47:21;;;;;;;6.50;2.00;;;;;;;;;;5046293;28;20521;-69
2022/10/20 14:49:51;;;;;;;6.80;2.10;;;;;;;;;;5046533;28;20048;-68
2022/10/20 14:52:16;;;;;;;3.42;2.03;;;;;;;;;;5045757;28;20052;-68
2022/10/20 14:54:42;;;;;;;2.97;1.42;;;;;;;;;;5046359;28;20483;-68